Time;durP1;ratioP1;P1;durP2;ratioP2;P2;SDS_P1;SDS_P2;PMS_P1;PMS_P2;Temp;Humidity;BMP_temperature;BMP_pressure;BME280_temperature;BME280_humidity;BME280_pressure;Samples;Min_cycle;Max_cycle;Signal;HPM_P1;HPM_P2
2023/05/03 00:01:56;;;;;;;4.30;2.45;;;;;;;;;;10092589;28;20058;-86
2023/05/03 00:07:01;;;;;;;4.57;3.17;;;;;;;;;;10082333;29;20057;-85
2023/05/03 00:12:05;;;;;;;3.50;2.65;;;;;;;;;;10090583;29;20109;-84
2023/05/03 00:17:09;;;;;;;3.55;2.40;;;;;;;;;;10014042;29;20403;-86
2023/05/03 00:22:14;;;;;;;3.35;2.47;;;;;;;;;;10109191;28;20136;-85
2023/05/03 00:27:17;;;;;;;4.03;2.72;;;;;;;;;;10086391;29;20105;-86
2023/05/03 00:32:22;;;;;;;3.50;2.50;;;;;;;;;;10039493;28;20077;-85
2023/05/03 00:37:28;;;;;;;3.22;2.55;;;;;;;;;;10104633;28;20053;-86
2023/05/03 00:42:35;;;;;;;4.22;2.22;;;;;;;;;;10078303;29;20100;-86
2023/05/03 00:47:39;;;;;;;5.05;2.80;;;;;;;;;;10034085;29;20068;-85
2023/05/03 00:52:45;;;;;;;2.42;1.95;;;;;;;;;;10096759;28;20143;-84
2023/05/03 00:57:48;;;;;;;2.93;2.27;;;;;;;;;;10038307;28;20100;-85
2023/05/03 01:02:52;;;;;;;2.88;2.42;;;;;;;;;;10040760;29;20316;-85
2023/05/03 01:08:07;;;;;;;3.38;2.22;;;;;;;;;;10051979;29;20100;-84
2023/05/03 01:13:19;;;;;;;4.25;2.60;;;;;;;;;;10081284;29;20149;-84
2023/05/03 01:18:28;;;;;;;3.50;2.40;;;;;;;;;;10040811;29;20574;-85
2023/05/03 01:23:45;;;;;;;4.40;2.10;;;;;;;;;;10068559;29;20050;-85
2023/05/03 01:28:50;;;;;;;2.33;1.98;;;;;;;;;;10077743;29;20069;-85
2023/05/03 01:34:17;;;;;;;4.15;2.42;;;;;;;;;;10071282;29;20396;-84
2023/05/03 01:39:24;;;;;;;2.70;2.40;;;;;;;;;;10036566;29;20135;-86
2023/05/03 01:44:30;;;;;;;3.63;2.00;;;;;;;;;;10016120;29;20574;-86
2023/05/03 01:49:34;;;;;;;3.63;2.20;;;;;;;;;;10073053;29;20069;-86
2023/05/03 01:54:41;;;;;;;2.17;1.92;;;;;;;;;;10084279;29;20053;-86
2023/05/03 01:59:47;;;;;;;2.63;1.92;;;;;;;;;;10098327;29;20120;-86
2023/05/03 02:04:52;;;;;;;3.00;1.85;;;;;;;;;;10046130;29;20163;-86
2023/05/03 02:09:57;;;;;;;4.32;1.95;;;;;;;;;;10027641;29;20054;-85
2023/05/03 02:15:02;;;;;;;3.63;2.20;;;;;;;;;;10106485;29;20054;-86
2023/05/03 02:20:08;;;;;;;2.55;2.30;;;;;;;;;;10071025;29;20140;-85
2023/05/03 02:25:12;;;;;;;2.92;2.25;;;;;;;;;;10012205;29;20060;-86
2023/05/03 02:30:16;;;;;;;4.10;2.10;;;;;;;;;;10096069;29;20103;-89
2023/05/03 02:35:20;;;;;;;2.70;2.00;;;;;;;;;;10074906;29;20084;-87
2023/05/03 02:40:23;;;;;;;4.00;2.10;;;;;;;;;;10077473;29;20574;-87
2023/05/03 02:45:29;;;;;;;2.55;1.92;;;;;;;;;;10360606;22;20483;-81
2023/05/03 02:50:32;;;;;;;2.25;2.00;;;;;;;;;;10270875;28;20109;-82
2023/05/03 02:55:35;;;;;;;3.47;2.03;;;;;;;;;;10263788;28;20044;-82
2023/05/03 03:00:40;;;;;;;2.90;1.92;;;;;;;;;;10269072;28;20139;-82
2023/05/03 03:05:45;;;;;;;3.70;2.05;;;;;;;;;;10280173;28;20044;-82
2023/05/03 03:10:51;;;;;;;3.22;2.30;;;;;;;;;;10252688;28;20063;-83
2023/05/03 03:15:56;;;;;;;3.13;2.08;;;;;;;;;;10248089;28;20496;-82
2023/05/03 03:21:00;;;;;;;2.63;2.03;;;;;;;;;;10242829;28;20123;-83
2023/05/03 03:26:05;;;;;;;2.42;2.10;;;;;;;;;;10249599;28;20052;-83
2023/05/03 03:31:10;;;;;;;3.42;1.95;;;;;;;;;;10249979;28;20044;-82
2023/05/03 03:36:15;;;;;;;;;;;;;;;;;;10259278;28;20048;-82
2023/05/03 03:41:21;;;;;;;;;;;;;;;;;;10241961;28;19934;-83
2023/05/03 03:46:27;;;;;;;2.60;1.88;;;;;;;;;;10270465;28;19965;-82
2023/05/03 03:51:33;;;;;;;4.55;2.30;;;;;;;;;;10265020;28;20040;-83
2023/05/03 03:56:36;;;;;;;5.15;2.20;;;;;;;;;;10257290;28;20056;-82
2023/05/03 04:01:42;;;;;;;2.58;1.85;;;;;;;;;;10250171;28;20043;-82
2023/05/03 04:06:47;;;;;;;2.92;2.15;;;;;;;;;;10254598;28;20055;-82
2023/05/03 04:11:51;;;;;;;4.25;2.30;;;;;;;;;;10185853;28;20044;-82
2023/05/03 04:16:56;;;;;;;3.75;2.50;;;;;;;;;;10244930;28;20040;-83
2023/05/03 04:21:59;;;;;;;4.97;2.10;;;;;;;;;;10246074;28;20056;-81
2023/05/03 04:27:03;;;;;;;3.17;2.00;;;;;;;;;;10227993;28;20059;-82
2023/05/03 04:32:10;;;;;;;5.78;3.17;;;;;;;;;;10251656;28;20047;-82
2023/05/03 04:37:19;;;;;;;3.50;2.08;;;;;;;;;;10239937;28;20064;-83
2023/05/03 04:42:22;;;;;;;3.65;2.45;;;;;;;;;;10246336;28;20055;-83
2023/05/03 04:47:27;;;;;;;3.75;2.35;;;;;;;;;;10232745;28;20048;-83
2023/05/03 04:52:31;;;;;;;4.75;2.70;;;;;;;;;;10185837;28;20044;-82
2023/05/03 04:57:35;;;;;;;2.75;2.13;;;;;;;;;;10240605;28;20071;-82
2023/05/03 05:02:41;;;;;;;3.17;2.13;;;;;;;;;;10246636;28;20045;-85
2023/05/03 05:07:45;;;;;;;2.60;2.10;;;;;;;;;;10238506;28;20516;-84
2023/05/03 05:12:49;;;;;;;2.42;2.05;;;;;;;;;;10245637;28;20135;-84
2023/05/03 05:17:54;;;;;;;3.75;1.70;;;;;;;;;;10253948;28;20106;-85
2023/05/03 05:22:57;;;;;;;2.90;2.00;;;;;;;;;;10231475;28;20059;-83
2023/05/03 05:28:02;;;;;;;3.38;2.00;;;;;;;;;;10243625;28;20110;-83
2023/05/03 05:33:07;;;;;;;4.50;2.50;;;;;;;;;;10254407;28;20052;-85
2023/05/03 05:38:11;;;;;;;3.70;2.30;;;;;;;;;;10252152;28;20138;-85
2023/05/03 05:43:14;;;;;;;5.90;2.45;;;;;;;;;;10260859;28;20067;-85
2023/05/03 05:48:21;;;;;;;4.00;2.65;;;;;;;;;;10242410;28;20048;-85
2023/05/03 05:53:25;;;;;;;3.50;2.40;;;;;;;;;;10251094;28;20052;-84
2023/05/03 05:58:36;;;;;;;3.40;2.20;;;;;;;;;;10249220;28;20147;-84
2023/05/03 06:03:41;;;;;;;3.57;2.20;;;;;;;;;;10254996;28;20130;-85
2023/05/03 06:08:48;;;;;;;2.78;2.22;;;;;;;;;;10238468;28;20292;-84
2023/05/03 06:13:51;;;;;;;3.13;2.05;;;;;;;;;;10252007;28;20712;-85
2023/05/03 06:18:57;;;;;;;4.60;2.70;;;;;;;;;;10230352;28;20044;-85
2023/05/03 06:24:01;;;;;;;3.72;2.10;;;;;;;;;;10242654;28;20052;-85
2023/05/03 06:29:05;;;;;;;6.07;2.47;;;;;;;;;;10232971;28;20063;-85
2023/05/03 06:34:10;;;;;;;3.67;1.88;;;;;;;;;;10239986;28;20143;-85
2023/05/03 06:39:16;;;;;;;3.10;2.25;;;;;;;;;;10254917;28;20553;-85
2023/05/03 06:44:21;;;;;;;4.07;1.95;;;;;;;;;;10172165;28;20425;-85
2023/05/03 06:49:25;;;;;;;4.22;1.98;;;;;;;;;;10230274;28;20044;-84
2023/05/03 06:54:29;;;;;;;2.78;2.25;;;;;;;;;;10253131;28;20630;-86
2023/05/03 06:59:32;;;;;;;2.17;1.85;;;;;;;;;;10186923;28;20455;-85
2023/05/03 07:04:38;;;;;;;2.50;2.05;;;;;;;;;;10245171;28;20123;-85
2023/05/03 07:09:41;;;;;;;3.25;2.13;;;;;;;;;;10242637;28;20112;-85
2023/05/03 07:14:46;;;;;;;3.42;2.10;;;;;;;;;;10198099;28;20051;-85
2023/05/03 07:19:51;;;;;;;3.55;1.85;;;;;;;;;;10183597;28;20611;-85
2023/05/03 07:24:57;;;;;;;4.97;2.30;;;;;;;;;;10259354;28;20072;-84
2023/05/03 07:30:02;;;;;;;3.75;1.80;;;;;;;;;;10234934;28;20056;-83
2023/05/03 07:35:08;;;;;;;5.63;2.80;;;;;;;;;;10246666;28;20131;-83
2023/05/03 07:40:12;;;;;;;2.47;1.83;;;;;;;;;;10249146;28;20066;-83
2023/05/03 07:45:15;;;;;;;3.53;1.75;;;;;;;;;;10179160;28;20303;-84
2023/05/03 07:50:20;;;;;;;4.13;2.40;;;;;;;;;;10228529;28;20051;-82
2023/05/03 07:55:24;;;;;;;4.22;2.25;;;;;;;;;;10175991;28;20749;-83
2023/05/03 08:00:30;;;;;;;4.97;2.03;;;;;;;;;;10240574;28;20544;-83
2023/05/03 08:05:35;;;;;;;4.95;2.45;;;;;;;;;;10167280;28;20059;-83
2023/05/03 08:10:38;;;;;;;5.70;2.25;;;;;;;;;;10187135;28;20064;-82
2023/05/03 08:15:41;;;;;;;2.47;1.55;;;;;;;;;;10177767;28;20050;-83
2023/05/03 08:20:46;;;;;;;3.30;1.67;;;;;;;;;;10170898;28;20052;-83
2023/05/03 08:25:50;;;;;;;3.72;2.08;;;;;;;;;;10182020;28;20052;-83
2023/05/03 08:30:53;;;;;;;7.15;2.15;;;;;;;;;;10156964;28;20071;-82
2023/05/03 08:35:58;;;;;;;4.38;2.30;;;;;;;;;;10230931;28;20476;-84
2023/05/03 08:41:10;;;;;;;2.30;1.60;;;;;;;;;;10243375;28;20517;-83
2023/05/03 08:46:14;;;;;;;3.25;2.13;;;;;;;;;;10256808;28;20105;-83
2023/05/03 08:51:19;;;;;;;5.30;2.25;;;;;;;;;;10237522;28;20915;-83
2023/05/03 08:56:28;;;;;;;4.78;2.70;;;;;;;;;;10250511;28;20406;-83
2023/05/03 09:01:33;;;;;;;2.78;1.60;;;;;;;;;;10242324;28;20044;-82
2023/05/03 09:06:38;;;;;;;3.92;2.42;;;;;;;;;;10275050;28;20047;-83
2023/05/03 09:11:42;;;;;;;7.50;2.70;;;;;;;;;;10253313;28;20047;-83
2023/05/03 09:16:46;;;;;;;4.20;2.45;;;;;;;;;;10258838;28;20053;-83
2023/05/03 09:21:51;;;;;;;3.38;1.90;;;;;;;;;;10259229;28;20442;-84
2023/05/03 09:26:57;;;;;;;4.50;2.08;;;;;;;;;;10275436;28;20059;-83
2023/05/03 09:32:04;;;;;;;2.40;1.55;;;;;;;;;;10205502;28;20386;-84
2023/05/03 09:37:09;;;;;;;2.50;1.48;;;;;;;;;;10191782;28;20052;-83
2023/05/03 09:42:14;;;;;;;3.13;1.83;;;;;;;;;;10200558;28;20414;-84
2023/05/03 09:47:18;;;;;;;4.28;2.17;;;;;;;;;;10276534;28;20548;-83
2023/05/03 09:52:33;;;;;;;4.35;1.88;;;;;;;;;;10263230;28;20050;-83
2023/05/03 09:57:37;;;;;;;3.23;1.70;;;;;;;;;;10261607;28;20056;-83
2023/05/03 10:02:41;;;;;;;2.25;1.38;;;;;;;;;;10247587;28;20064;-83
2023/05/03 10:07:48;;;;;;;2.72;1.40;;;;;;;;;;10189913;28;20072;-84
2023/05/03 10:12:52;;;;;;;2.00;1.48;;;;;;;;;;10192164;28;20424;-82
2023/05/03 10:17:57;;;;;;;3.00;1.67;;;;;;;;;;10270619;28;20066;-81
2023/05/03 10:23:13;;;;;;;2.55;1.25;;;;;;;;;;10278642;28;20071;-82
2023/05/03 10:28:16;;;;;;;2.95;1.30;;;;;;;;;;10272105;28;20048;-82
2023/05/03 10:33:31;;;;;;;3.47;1.52;;;;;;;;;;10265266;28;20124;-81
2023/05/03 10:38:37;;;;;;;1.20;1.10;;;;;;;;;;10195467;28;20052;-82
2023/05/03 10:43:45;;;;;;;2.97;1.33;;;;;;;;;;10218696;28;20054;-82
2023/05/03 10:49:15;;;;;;;1.67;1.05;;;;;;;;;;10249223;28;20070;-81
2023/05/03 10:54:20;;;;;;;3.25;1.70;;;;;;;;;;10188026;28;20143;-81
2023/05/03 10:59:24;;;;;;;4.07;1.90;;;;;;;;;;10252481;28;20059;-82
2023/05/03 11:04:41;;;;;;;1.75;1.38;;;;;;;;;;10250023;28;20060;-81
2023/05/03 11:09:46;;;;;;;1.23;0.93;;;;;;;;;;10197448;28;20048;-82
2023/05/03 11:14:50;;;;;;;2.25;1.02;;;;;;;;;;10186630;28;20055;-82
2023/05/03 11:19:54;;;;;;;3.70;1.52;;;;;;;;;;10238298;28;20065;-82
2023/05/03 11:24:58;;;;;;;1.55;1.00;;;;;;;;;;10265704;28;20556;-81
2023/05/03 11:30:03;;;;;;;2.47;1.38;;;;;;;;;;10184124;28;20421;-82
2023/05/03 11:35:07;;;;;;;1.33;1.10;;;;;;;;;;10185105;28;20063;-82
2023/05/03 11:40:17;;;;;;;1.40;0.98;;;;;;;;;;10262825;28;20056;-83
2023/05/03 11:45:21;;;;;;;2.40;1.33;;;;;;;;;;10188308;28;20056;-82
2023/05/03 11:50:44;;;;;;;1.63;1.40;;;;;;;;;;10260484;28;20417;-82
2023/05/03 11:55:52;;;;;;;3.22;1.15;;;;;;;;;;10198941;28;20103;-82
2023/05/03 12:00:56;;;;;;;2.85;1.38;;;;;;;;;;10242119;28;20047;-82
2023/05/03 12:06:00;;;;;;;2.28;1.10;;;;;;;;;;10198838;28;20085;-82
2023/05/03 12:11:06;;;;;;;2.30;1.17;;;;;;;;;;10176453;28;20078;-82
2023/05/03 12:16:17;;;;;;;4.35;1.67;;;;;;;;;;10192555;28;20059;-82
2023/05/03 12:21:23;;;;;;;2.05;1.10;;;;;;;;;;10239081;28;20044;-81
2023/05/03 12:26:30;;;;;;;1.52;1.00;;;;;;;;;;10193344;28;20166;-82
2023/05/03 12:31:36;;;;;;;3.00;1.80;;;;;;;;;;10180100;28;20051;-82
2023/05/03 12:36:41;;;;;;;3.97;1.30;;;;;;;;;;10250758;28;20123;-82
2023/05/03 12:41:46;;;;;;;2.72;1.42;;;;;;;;;;10169243;28;20614;-82
2023/05/03 12:46:53;;;;;;;3.13;1.58;;;;;;;;;;10185196;28;20048;-82
2023/05/03 12:51:59;;;;;;;1.85;1.27;;;;;;;;;;10187328;28;20051;-81
2023/05/03 12:57:08;;;;;;;1.55;0.93;;;;;;;;;;10249364;28;20048;-81
2023/05/03 13:02:14;;;;;;;3.15;1.02;;;;;;;;;;10245941;28;20092;-81
2023/05/03 13:07:21;;;;;;;1.73;1.27;;;;;;;;;;10253683;28;20135;-81
2023/05/03 13:12:32;;;;;;;2.38;1.50;;;;;;;;;;10187854;28;20047;-81
2023/05/03 13:17:35;;;;;;;2.15;0.90;;;;;;;;;;10250919;28;20052;-81
2023/05/03 13:22:38;;;;;;;1.00;0.70;;;;;;;;;;10185002;28;20051;-81
2023/05/03 13:27:45;;;;;;;2.03;1.10;;;;;;;;;;10248497;28;20063;-81
2023/05/03 13:32:48;;;;;;;2.35;1.13;;;;;;;;;;10244307;28;20055;-82
2023/05/03 13:37:52;;;;;;;1.08;0.70;;;;;;;;;;10183275;28;20058;-81
2023/05/03 13:42:57;;;;;;;3.03;1.13;;;;;;;;;;10243437;28;20552;-82
2023/05/03 13:48:01;;;;;;;1.77;1.20;;;;;;;;;;10258547;28;20143;-82
2023/05/03 13:53:08;;;;;;;1.75;1.10;;;;;;;;;;10269079;28;20105;-82
2023/05/03 13:58:12;;;;;;;1.73;1.05;;;;;;;;;;10264372;28;20058;-82
2023/05/03 14:03:16;;;;;;;2.90;0.85;;;;;;;;;;10245141;28;20684;-82
2023/05/03 14:08:20;;;;;;;3.53;1.30;;;;;;;;;;10258428;28;20132;-83
2023/05/03 14:13:24;;;;;;;2.65;1.10;;;;;;;;;;10192637;28;20044;-83
2023/05/03 14:18:28;;;;;;;1.83;0.80;;;;;;;;;;10177847;28;20054;-82
2023/05/03 14:23:31;;;;;;;2.05;1.02;;;;;;;;;;10176496;28;20053;-83
2023/05/03 14:28:36;;;;;;;1.10;0.80;;;;;;;;;;10188134;28;20051;-83
2023/05/03 14:33:39;;;;;;;2.17;1.00;;;;;;;;;;10247315;28;20052;-83
2023/05/03 14:38:42;;;;;;;1.98;0.90;;;;;;;;;;10191479;28;20059;-82
2023/05/03 14:43:47;;;;;;;2.63;0.80;;;;;;;;;;10435796;22;20437;-86
2023/05/03 14:48:50;;;;;;;2.97;1.05;;;;;;;;;;10175783;28;20059;-85
2023/05/03 14:53:54;;;;;;;2.10;0.90;;;;;;;;;;10197332;28;20048;-87
2023/05/03 14:59:00;;;;;;;2.20;0.85;;;;;;;;;;10182266;28;20135;-86
2023/05/03 15:04:06;;;;;;;2.38;0.70;;;;;;;;;;10244875;28;20062;-86
2023/05/03 15:09:11;;;;;;;1.33;0.50;;;;;;;;;;10187566;28;20060;-86
2023/05/03 15:14:17;;;;;;;1.17;0.57;;;;;;;;;;10240082;28;20059;-90
2023/05/03 15:19:20;;;;;;;1.73;0.60;;;;;;;;;;10226477;28;20405;-86
2023/05/03 15:24:24;;;;;;;0.63;0.40;;;;;;;;;;10240763;28;20058;-89
2023/05/03 15:29:29;;;;;;;1.88;0.80;;;;;;;;;;10237563;28;20059;-86
2023/05/03 15:34:34;;;;;;;1.00;0.70;;;;;;;;;;10235820;28;20055;-88
2023/05/03 15:39:37;;;;;;;0.75;0.50;;;;;;;;;;10183957;28;20123;-88
2023/05/03 15:44:45;;;;;;;1.08;0.70;;;;;;;;;;10261969;28;20067;-86
2023/05/03 15:49:48;;;;;;;1.52;0.68;;;;;;;;;;10251780;28;20047;-85
2023/05/03 15:54:53;;;;;;;1.15;0.60;;;;;;;;;;10189034;28;20048;-88
2023/05/03 16:00:05;;;;;;;0.93;0.52;;;;;;;;;;10178115;28;20063;-89
2023/05/03 16:05:24;;;;;;;3.35;0.80;;;;;;;;;;10180648;28;20048;-85
2023/05/03 16:10:28;;;;;;;0.55;0.40;;;;;;;;;;10246099;28;20055;-85
2023/05/03 16:15:33;;;;;;;1.80;0.50;;;;;;;;;;10236902;28;20056;-89
2023/05/03 16:20:36;;;;;;;1.60;0.65;;;;;;;;;;10180331;28;20060;-85
2023/05/03 16:25:40;;;;;;;0.68;0.43;;;;;;;;;;10178283;28;20048;-85
2023/05/03 16:30:45;;;;;;;2.10;0.60;;;;;;;;;;10252584;28;20051;-85
2023/05/03 16:35:53;;;;;;;2.80;0.80;;;;;;;;;;10242177;28;20074;-88
2023/05/03 16:40:58;;;;;;;1.27;0.60;;;;;;;;;;10250254;28;20505;-86
2023/05/03 16:46:03;;;;;;;0.60;0.40;;;;;;;;;;10242863;28;20150;-85
2023/05/03 16:51:06;;;;;;;1.15;0.50;;;;;;;;;;10258944;28;20542;-87
2023/05/03 16:56:09;;;;;;;0.60;0.30;;;;;;;;;;10241075;28;20055;-83
2023/05/03 17:01:14;;;;;;;2.38;0.70;;;;;;;;;;10235387;28;20048;-83
2023/05/03 17:06:18;;;;;;;1.00;0.70;;;;;;;;;;10231300;28;20697;-83
2023/05/03 17:11:25;;;;;;;1.02;0.50;;;;;;;;;;10227515;28;20121;-83
2023/05/03 17:16:30;;;;;;;0.90;0.68;;;;;;;;;;10159377;28;20052;-82
2023/05/03 17:21:35;;;;;;;1.98;0.52;;;;;;;;;;10225742;28;20056;-83
2023/05/03 17:26:38;;;;;;;0.95;0.45;;;;;;;;;;10244793;28;21313;-83
2023/05/03 17:31:43;;;;;;;0.47;0.30;;;;;;;;;;10232247;28;20442;-83
2023/05/03 17:36:47;;;;;;;2.35;0.65;;;;;;;;;;10232864;28;20044;-83
2023/05/03 17:41:50;;;;;;;1.23;0.68;;;;;;;;;;10159594;28;20055;-84
2023/05/03 17:46:55;;;;;;;1.23;0.50;;;;;;;;;;10227686;28;20067;-83
2023/05/03 17:51:59;;;;;;;2.67;0.70;;;;;;;;;;10252444;28;20060;-83
2023/05/03 17:57:02;;;;;;;0.80;0.45;;;;;;;;;;10237287;28;20052;-84
2023/05/03 18:02:06;;;;;;;0.52;0.40;;;;;;;;;;10221179;28;20056;-85
2023/05/03 18:07:10;;;;;;;1.00;0.32;;;;;;;;;;10196380;28;20053;-85
2023/05/03 18:12:13;;;;;;;2.72;0.50;;;;;;;;;;10168830;28;20079;-87
2023/05/03 18:17:18;;;;;;;0.65;0.30;;;;;;;;;;10246097;28;20581;-85
2023/05/03 18:22:24;;;;;;;0.77;0.50;;;;;;;;;;10238075;28;20063;-85
2023/05/03 18:27:27;;;;;;;;;;;;;;;;;;10181602;28;20047;-85
2023/05/03 18:32:32;;;;;;;1.20;0.40;;;;;;;;;;10172480;28;19923;-87
2023/05/03 18:37:36;;;;;;;0.55;0.40;;;;;;;;;;10252343;28;20056;-85
2023/05/03 18:42:39;;;;;;;1.60;0.55;;;;;;;;;;10184843;28;20067;-86
2023/05/03 18:47:44;;;;;;;0.68;0.43;;;;;;;;;;10234017;28;20048;-84
2023/05/03 18:52:49;;;;;;;2.72;0.60;;;;;;;;;;10178938;28;20050;-83
2023/05/03 18:57:53;;;;;;;1.60;0.73;;;;;;;;;;10243289;28;20417;-83
2023/05/03 19:02:57;;;;;;;2.50;0.60;;;;;;;;;;10230782;28;20583;-83
2023/05/03 19:08:01;;;;;;;0.88;0.60;;;;;;;;;;10237585;28;20063;-83
2023/05/03 19:13:04;;;;;;;2.78;0.93;;;;;;;;;;10234625;28;20688;-83
2023/05/03 19:18:09;;;;;;;2.42;1.10;;;;;;;;;;10171988;28;20060;-83
2023/05/03 19:23:16;;;;;;;3.13;1.50;;;;;;;;;;10213641;28;20127;-83
2023/05/03 19:28:25;;;;;;;2.40;1.30;;;;;;;;;;10238172;28;20095;-85
2023/05/03 19:33:30;;;;;;;2.35;1.80;;;;;;;;;;10222643;28;20323;-85
2023/05/03 19:38:35;;;;;;;4.40;2.50;;;;;;;;;;10229386;28;20051;-86
2023/05/03 19:43:38;;;;;;;2.78;1.60;;;;;;;;;;10228945;28;21607;-85
2023/05/03 19:48:43;;;;;;;3.97;1.50;;;;;;;;;;10136760;28;20055;-84
2023/05/03 19:53:47;;;;;;;1.98;1.30;;;;;;;;;;10226925;28;20047;-83
2023/05/03 19:58:51;;;;;;;1.40;1.30;;;;;;;;;;10201937;28;20068;-84
2023/05/03 20:03:58;;;;;;;2.67;1.55;;;;;;;;;;10170044;28;20529;-83
2023/05/03 20:09:01;;;;;;;2.53;1.40;;;;;;;;;;10164445;28;20056;-83
2023/05/03 20:14:04;;;;;;;2.20;1.38;;;;;;;;;;10167277;28;20055;-83
2023/05/03 20:19:09;;;;;;;2.65;1.60;;;;;;;;;;10253329;28;20055;-83
2023/05/03 20:24:13;;;;;;;2.42;1.60;;;;;;;;;;10182740;28;20067;-83
2023/05/03 20:29:17;;;;;;;2.60;1.70;;;;;;;;;;10170445;28;20075;-83
2023/05/03 20:34:21;;;;;;;4.00;1.98;;;;;;;;;;10167900;28;20127;-83
2023/05/03 20:39:25;;;;;;;3.80;1.95;;;;;;;;;;10230657;28;20066;-84
2023/05/03 20:44:29;;;;;;;2.20;1.48;;;;;;;;;;10238067;28;20084;-84
2023/05/03 20:49:35;;;;;;;1.92;1.17;;;;;;;;;;10224483;28;20048;-84
2023/05/03 20:54:40;;;;;;;2.90;1.52;;;;;;;;;;10238963;28;20063;-84
2023/05/03 20:59:44;;;;;;;2.33;1.10;;;;;;;;;;10235768;28;20048;-86
2023/05/03 21:04:49;;;;;;;3.17;1.60;;;;;;;;;;10234651;28;20055;-86
2023/05/03 21:09:52;;;;;;;5.78;1.40;;;;;;;;;;10248182;28;20589;-86
2023/05/03 21:14:56;;;;;;;2.33;1.15;;;;;;;;;;10256714;28;20068;-87
2023/05/03 21:20:01;;;;;;;1.35;1.00;;;;;;;;;;10253629;28;20051;-87
2023/05/03 21:25:05;;;;;;;1.40;1.00;;;;;;;;;;10254063;28;20052;-88
2023/05/03 21:30:10;;;;;;;1.48;1.10;;;;;;;;;;10235484;28;20051;-86
2023/05/03 21:35:15;;;;;;;1.73;1.10;;;;;;;;;;10247986;28;20110;-87
2023/05/03 21:40:20;;;;;;;2.15;1.33;;;;;;;;;;10184576;28;20047;-87
2023/05/03 21:45:24;;;;;;;2.30;1.70;;;;;;;;;;10161287;28;20536;-87
2023/05/03 21:50:29;;;;;;;2.97;1.75;;;;;;;;;;10238404;28;20159;-84
2023/05/03 21:55:32;;;;;;;4.40;2.50;;;;;;;;;;10170974;28;20056;-83
2023/05/03 22:00:35;;;;;;;3.90;2.50;;;;;;;;;;10238863;28;20048;-83
2023/05/03 22:05:42;;;;;;;4.85;2.47;;;;;;;;;;10236540;28;20937;-83
2023/05/03 22:10:45;;;;;;;4.35;2.35;;;;;;;;;;10194352;28;20043;-83
2023/05/03 22:15:48;;;;;;;3.58;2.17;;;;;;;;;;10233008;28;20048;-84
2023/05/03 22:20:53;;;;;;;3.45;1.95;;;;;;;;;;10240541;28;20048;-83
2023/05/03 22:25:56;;;;;;;2.20;1.40;;;;;;;;;;10223815;28;20060;-83
2023/05/03 22:30:59;;;;;;;3.30;1.30;;;;;;;;;;10242891;28;20059;-83
2023/05/03 22:36:05;;;;;;;3.08;1.63;;;;;;;;;;10249571;28;20055;-84
2023/05/03 22:41:08;;;;;;;3.17;1.50;;;;;;;;;;10165265;28;20063;-84
2023/05/03 22:46:12;;;;;;;2.25;1.50;;;;;;;;;;10235309;28;20292;-83
2023/05/03 22:51:16;;;;;;;1.92;1.35;;;;;;;;;;10252081;28;20063;-84
2023/05/03 22:56:20;;;;;;;2.20;1.60;;;;;;;;;;10235753;28;20516;-83
2023/05/03 23:01:25;;;;;;;2.55;1.35;;;;;;;;;;10242118;28;20051;-84
2023/05/03 23:06:30;;;;;;;1.97;1.40;;;;;;;;;;10187007;28;20052;-83
2023/05/03 23:11:34;;;;;;;1.40;1.30;;;;;;;;;;10241907;28;20051;-84
2023/05/03 23:16:37;;;;;;;2.45;1.60;;;;;;;;;;10166226;28;20054;-84
2023/05/03 23:21:42;;;;;;;2.75;1.60;;;;;;;;;;10233064;28;20048;-85
2023/05/03 23:26:45;;;;;;;3.15;1.50;;;;;;;;;;10163692;28;20047;-86
2023/05/03 23:31:49;;;;;;;3.33;1.50;;;;;;;;;;10168119;28;20051;-88
2023/05/03 23:36:54;;;;;;;2.30;1.60;;;;;;;;;;10238018;28;20052;-86
2023/05/03 23:41:57;;;;;;;3.22;1.77;;;;;;;;;;10253908;28;20064;-86
2023/05/03 23:47:01;;;;;;;2.70;1.75;;;;;;;;;;10238675;28;20067;-87
2023/05/03 23:52:06;;;;;;;2.13;1.67;;;;;;;;;;10224462;28;20063;-87
2023/05/03 23:57:09;;;;;;;2.13;1.20;;;;;;;;;;10219593;28;20044;-87
